Time;durP1;ratioP1;P1;durP2;ratioP2;P2;SDS_P1;SDS_P2;PMS_P1;PMS_P2;Temp;Humidity;BMP_temperature;BMP_pressure;BME280_temperature;BME280_humidity;BME280_pressure;Samples;Min_cycle;Max_cycle;Signal;HPM_P1;HPM_P2
2020/12/25 00:02:01;;;;;;;9.93;3.05;;;;;;;3.15;100.00;101496.22;5035938;28;20047;-85
2020/12/25 00:04:27;;;;;;;8.45;3.10;;;;;;;3.15;100.00;101491.75;5040714;28;20725;-85
2020/12/25 00:06:52;;;;;;;10.63;3.38;;;;;;;3.16;100.00;101501.44;5045043;28;20052;-85
2020/12/25 00:09:17;;;;;;;11.18;3.45;;;;;;;3.14;100.00;101499.84;5039963;28;20036;-86
2020/12/25 00:11:43;;;;;;;6.97;2.78;;;;;;;3.16;100.00;101488.19;5013828;28;20037;-85
2020/12/25 00:14:09;;;;;;;13.05;3.20;;;;;;;3.14;100.00;101495.38;5004503;28;20270;-85
2020/12/25 00:16:35;;;;;;;9.90;2.88;;;;;;;3.12;100.00;101494.63;5008981;28;20064;-85
2020/12/25 00:19:00;;;;;;;6.10;3.03;;;;;;;3.12;100.00;101499.06;4997573;28;20064;-85
2020/12/25 00:21:26;;;;;;;9.65;3.28;;;;;;;3.09;100.00;101502.78;4995769;28;20038;-86
2020/12/25 00:23:51;;;;;;;10.43;3.42;;;;;;;3.05;100.00;101511.88;5007369;28;20427;-85
2020/12/25 00:26:31;;;;;;;9.18;3.05;;;;;;;3.04;100.00;101519.94;5001817;28;20117;-86
2020/12/25 00:28:58;;;;;;;10.82;3.35;;;;;;;3.00;100.00;101521.09;5009767;28;20049;-85
2020/12/25 00:31:40;;;;;;;11.13;3.50;;;;;;;3.01;100.00;101528.09;5016526;28;20046;-86
2020/12/25 00:34:10;;;;;;;12.75;3.83;;;;;;;2.98;100.00;101525.63;5000578;28;20471;-85
2020/12/25 00:36:37;;;;;;;7.80;3.20;;;;;;;2.94;100.00;101535.59;5017320;28;20068;-85
2020/12/25 00:39:07;;;;;;;9.82;3.25;;;;;;;2.92;100.00;101530.34;5029812;28;20037;-85
2020/12/25 00:41:32;;;;;;;10.13;3.67;;;;;;;2.90;100.00;101549.97;5048202;28;20565;-87
2020/12/25 00:43:58;;;;;;;10.88;3.38;;;;;;;2.88;100.00;101555.38;5039897;28;20042;-85
2020/12/25 00:46:23;;;;;;;8.70;3.13;;;;;;;2.84;100.00;101553.84;5036789;28;20407;-85
2020/12/25 00:48:49;;;;;;;8.57;3.72;;;;;;;2.80;100.00;101552.34;5034339;28;20406;-87
2020/12/25 00:51:19;;;;;;;10.50;3.55;;;;;;;2.79;100.00;101552.44;5044447;28;20466;-85
2020/12/25 00:53:46;;;;;;;11.50;3.33;;;;;;;2.74;100.00;101555.38;5044772;28;20052;-86
2020/12/25 00:56:12;;;;;;;8.98;3.60;;;;;;;2.70;100.00;101556.50;5033797;28;20818;-86
2020/12/25 00:58:39;;;;;;;9.05;3.55;;;;;;;2.65;100.00;101555.97;5039453;28;20048;-86
2020/12/25 01:01:08;;;;;;;7.68;2.72;;;;;;;2.63;100.00;101556.03;5035992;28;20113;-86
2020/12/25 01:03:34;;;;;;;;;;;;;;;2.59;100.00;101558.97;5047241;28;20048;-86
2020/12/25 01:05:59;;;;;;;8.63;3.75;;;;;;;2.46;100.00;101572.97;5046425;28;19917;-86
2020/12/25 01:08:25;;;;;;;8.35;3.47;;;;;;;2.46;100.00;101569.47;5039017;28;20037;-86
2020/12/25 01:10:51;;;;;;;14.25;4.10;;;;;;;2.46;100.00;101574.75;5053006;28;20064;-85
2020/12/25 01:13:17;;;;;;;10.98;4.53;;;;;;;2.42;100.00;101581.19;5042925;28;20041;-86
2020/12/25 01:15:42;;;;;;;10.38;3.90;;;;;;;2.40;100.00;101577.78;5050516;28;20037;-86
2020/12/25 01:18:08;;;;;;;11.25;3.63;;;;;;;2.37;100.00;101584.13;5035989;28;20127;-86
2020/12/25 01:20:35;;;;;;;8.68;3.20;;;;;;;2.35;100.00;101591.28;5025546;28;20488;-85
2020/12/25 01:23:00;;;;;;;16.17;3.85;;;;;;;2.32;100.00;101591.47;5042183;28;20102;-85
2020/12/25 01:25:25;;;;;;;10.30;3.58;;;;;;;2.26;100.00;101590.03;5041320;28;20045;-86
2020/12/25 01:27:51;;;;;;;10.60;3.50;;;;;;;2.21;100.00;101593.91;5038883;28;20041;-85
2020/12/25 01:30:16;;;;;;;10.57;4.00;;;;;;;2.18;100.00;101594.09;5034999;28;20042;-86
2020/12/25 01:32:42;;;;;;;9.43;3.63;;;;;;;2.15;100.00;101594.28;5047119;28;20546;-86
2020/12/25 01:35:07;;;;;;;6.80;3.20;;;;;;;2.11;100.00;101600.72;5042511;28;20053;-86
2020/12/25 01:37:33;;;;;;;9.70;4.10;;;;;;;2.11;100.00;101606.00;5045770;28;20044;-88
2020/12/25 01:39:58;;;;;;;12.15;4.07;;;;;;;2.09;100.00;101607.88;5036102;28;20086;-85
2020/12/25 01:42:23;;;;;;;10.70;4.15;;;;;;;2.05;100.00;101611.66;5033043;28;20047;-85
2020/12/25 01:44:49;;;;;;;15.52;4.38;;;;;;;2.03;100.00;101612.59;5030056;28;20048;-85
2020/12/25 01:47:16;;;;;;;12.88;3.80;;;;;;;2.02;100.00;101620.63;5040180;28;20120;-85
2020/12/25 01:49:42;;;;;;;12.48;4.03;;;;;;;2.00;100.00;101627.81;5044310;28;20045;-85
2020/12/25 01:52:08;;;;;;;10.93;4.25;;;;;;;1.95;100.00;101625.41;5041140;28;20124;-85
2020/12/25 01:54:34;;;;;;;14.88;4.75;;;;;;;1.93;100.00;101624.66;5036846;28;20040;-85
2020/12/25 01:57:01;;;;;;;15.40;4.78;;;;;;;1.91;100.00;101629.19;5039282;28;20403;-86
2020/12/25 01:59:27;;;;;;;10.30;4.45;;;;;;;1.84;100.00;101632.25;5044288;28;20147;-86
2020/12/25 02:01:53;;;;;;;11.95;4.13;;;;;;;1.81;100.00;101641.22;4985691;28;20495;-85
2020/12/25 02:04:18;;;;;;;15.90;4.43;;;;;;;1.77;100.00;101634.41;4986355;28;20034;-85
2020/12/25 02:06:44;;;;;;;14.75;4.72;;;;;;;1.73;100.00;101636.38;4996986;28;20434;-85
2020/12/25 02:09:09;;;;;;;13.43;4.70;;;;;;;1.66;100.00;101648.25;4959580;28;20050;-86
2020/12/25 02:11:37;;;;;;;11.85;4.68;;;;;;;1.64;100.00;101652.78;4945821;28;20096;-85
2020/12/25 02:14:03;;;;;;;11.80;5.05;;;;;;;1.58;100.00;101653.97;4990560;28;20050;-85
2020/12/25 02:16:28;;;;;;;12.60;4.63;;;;;;;1.52;100.00;101654.28;4966028;28;20042;-85
2020/12/25 02:18:53;;;;;;;12.85;5.40;;;;;;;1.55;100.00;101663.84;4984689;28;20030;-88
2020/12/25 02:21:19;;;;;;;12.77;6.20;;;;;;;1.54;100.00;101664.81;4998265;28;20050;-86
2020/12/25 02:23:44;;;;;;;14.60;6.25;;;;;;;1.53;100.00;101671.88;5015871;28;20102;-86
2020/12/25 02:26:10;;;;;;;11.50;5.25;;;;;;;1.51;100.00;101679.06;4981455;28;20045;-85
2020/12/25 02:28:36;;;;;;;16.30;5.07;;;;;;;1.52;100.00;101682.53;5029813;28;20042;-86
2020/12/25 02:31:02;;;;;;;17.17;4.90;;;;;;;1.49;100.00;101672.97;5039311;28;20048;-87
2020/12/25 02:33:27;;;;;;;14.63;5.70;;;;;;;1.48;100.00;101676.56;5051718;28;20041;-86
2020/12/25 02:35:53;;;;;;;12.63;5.38;;;;;;;1.48;100.00;101668.63;5053612;28;20036;-85
2020/12/25 02:38:18;;;;;;;18.15;5.03;;;;;;;1.49;100.00;101680.91;5010395;28;20041;-87
2020/12/25 02:40:44;;;;;;;13.85;5.97;;;;;;;1.49;100.00;101680.06;5049381;28;20044;-86
2020/12/25 02:43:09;;;;;;;16.80;6.55;;;;;;;1.44;100.00;101682.09;5048207;28;20120;-85
2020/12/25 02:45:34;;;;;;;16.33;6.05;;;;;;;1.44;100.00;101680.34;5052392;28;20080;-85
2020/12/25 02:48:00;;;;;;;16.48;7.60;;;;;;;1.37;100.00;101686.03;5042566;28;20045;-87
2020/12/25 02:50:25;;;;;;;21.23;7.32;;;;;;;1.34;100.00;101687.06;5047163;28;20155;-85
2020/12/25 02:52:52;;;;;;;14.70;7.85;;;;;;;1.29;100.00;101692.56;5040238;28;20110;-85
2020/12/25 02:55:17;;;;;;;20.15;5.45;;;;;;;1.30;100.00;101685.53;5048042;28;20107;-85
2020/12/25 02:57:42;;;;;;;13.13;4.70;;;;;;;1.28;100.00;101704.09;5001537;28;20068;-86
2020/12/25 03:00:08;;;;;;;12.23;4.30;;;;;;;1.23;100.00;101705.28;5008518;28;20084;-85
2020/12/25 03:02:33;;;;;;;16.05;4.63;;;;;;;1.28;100.00;101703.25;4996718;28;20037;-85
2020/12/25 03:04:59;;;;;;;14.90;4.07;;;;;;;1.31;100.00;101692.50;4995382;28;20038;-85
2020/12/25 03:07:24;;;;;;;17.73;4.90;;;;;;;1.32;100.00;101705.66;5006071;28;20045;-86
2020/12/25 03:09:50;;;;;;;16.05;4.15;;;;;;;1.31;100.00;101708.38;4997295;28;20064;-85
2020/12/25 03:12:15;;;;;;;25.15;4.22;;;;;;;1.28;100.00;101703.25;5000554;28;20057;-85
2020/12/25 03:14:41;;;;;;;14.48;4.03;;;;;;;1.27;100.00;101697.13;5001887;28;20111;-85
2020/12/25 03:17:06;;;;;;;17.58;4.65;;;;;;;1.27;100.00;101702.41;5006637;28;20176;-86
2020/12/25 03:19:32;;;;;;;16.60;3.55;;;;;;;1.23;100.00;101705.28;5004154;28;20042;-85
2020/12/25 03:21:58;;;;;;;14.65;4.07;;;;;;;1.18;100.00;101702.91;5009882;28;20563;-85
2020/12/25 03:24:23;;;;;;;14.23;4.22;;;;;;;1.16;100.00;101704.75;5043918;28;20048;-85
2020/12/25 03:26:49;;;;;;;16.92;3.70;;;;;;;1.16;100.00;101709.19;5048352;28;20040;-86
2020/12/25 03:29:14;;;;;;;15.57;3.78;;;;;;;1.15;100.00;101710.97;5048021;28;20033;-85
2020/12/25 03:31:40;;;;;;;11.95;3.20;;;;;;;1.17;100.00;101719.69;5016180;28;20041;-86
2020/12/25 03:34:05;;;;;;;17.00;3.75;;;;;;;1.17;100.00;101711.75;5034759;28;20044;-86
2020/12/25 03:36:32;;;;;;;18.23;3.47;;;;;;;1.21;100.00;101712.44;5043127;28;20061;-85
2020/12/25 03:38:57;;;;;;;11.40;2.80;;;;;;;1.24;100.00;101712.28;5040159;28;20044;-86
2020/12/25 03:41:23;;;;;;;13.20;3.13;;;;;;;1.22;100.00;101717.66;5028892;28;20041;-86
2020/12/25 03:43:48;;;;;;;8.77;2.80;;;;;;;1.23;100.00;101716.69;5005070;28;20040;-86
2020/12/25 03:46:14;;;;;;;10.98;2.50;;;;;;;1.23;100.00;101721.16;5022027;28;20454;-85
2020/12/25 03:48:39;;;;;;;8.57;2.83;;;;;;;1.22;100.00;101716.81;5018976;28;20037;-86
2020/12/25 03:51:06;;;;;;;11.00;2.80;;;;;;;1.21;100.00;101720.38;5023366;28;20131;-85
2020/12/25 03:53:31;;;;;;;11.02;3.20;;;;;;;1.19;100.00;101724.91;5010948;28;20045;-85
2020/12/25 03:55:57;;;;;;;7.28;2.80;;;;;;;1.17;100.00;101722.31;5016172;28;20052;-86
2020/12/25 03:58:22;;;;;;;11.63;2.90;;;;;;;1.21;100.00;101723.00;5015289;28;20033;-87
2020/12/25 04:00:49;;;;;;;12.38;3.03;;;;;;;1.10;100.00;101721.81;5014211;28;20074;-86
2020/12/25 04:03:16;;;;;;;11.75;3.08;;;;;;;1.10;100.00;101735.03;5026875;28;20099;-85
2020/12/25 04:05:42;;;;;;;9.52;2.88;;;;;;;1.04;100.00;101737.13;5013090;28;20048;-85
2020/12/25 04:08:07;;;;;;;9.25;2.90;;;;;;;1.10;100.00;101742.94;5014568;28;20041;-85
2020/12/25 04:10:33;;;;;;;14.70;3.33;;;;;;;1.13;100.00;101744.59;5040817;28;20044;-86
2020/12/25 04:13:01;;;;;;;8.10;3.15;;;;;;;1.15;100.00;101739.19;5037401;28;20049;-86
2020/12/25 04:15:27;;;;;;;11.02;2.78;;;;;;;1.18;100.00;101742.56;5053563;28;20036;-86
2020/12/25 04:17:53;;;;;;;10.15;2.65;;;;;;;1.19;100.00;101740.75;5047607;28;20042;-86
2020/12/25 04:20:18;;;;;;;10.52;2.45;;;;;;;1.23;100.00;101742.31;5038141;28;20052;-86
2020/12/25 04:22:44;;;;;;;6.80;1.63;;;;;;;1.27;100.00;101742.06;5043725;28;20104;-85
2020/12/25 04:25:09;;;;;;;13.18;2.70;;;;;;;1.30;100.00;101733.13;5043125;28;20102;-85
2020/12/25 04:27:34;;;;;;;7.28;2.05;;;;;;;1.29;100.00;101740.19;5036690;28;20045;-86
2020/12/25 04:30:00;;;;;;;10.95;1.90;;;;;;;1.35;100.00;101747.81;5058883;28;20055;-86
2020/12/25 04:32:25;;;;;;;10.57;2.65;;;;;;;1.35;100.00;101744.28;5044375;28;20059;-86
2020/12/25 04:34:51;;;;;;;5.97;2.00;;;;;;;1.39;100.00;101743.22;5025673;28;20494;-86
2020/12/25 04:37:18;;;;;;;8.35;2.20;;;;;;;1.37;100.00;101745.06;5053239;28;20033;-88
2020/12/25 04:39:43;;;;;;;6.53;1.80;;;;;;;1.29;100.00;101741.97;5054438;28;20526;-86
2020/12/25 04:42:09;;;;;;;9.95;2.05;;;;;;;1.33;100.00;101743.53;5042166;28;20045;-86
2020/12/25 04:44:34;;;;;;;11.93;2.13;;;;;;;1.36;100.00;101746.00;5040011;28;20040;-85
2020/12/25 04:47:10;;;;;;;10.80;2.60;;;;;;;1.40;100.00;101741.41;5044818;28;20521;-86
2020/12/25 04:49:37;;;;;;;12.13;2.45;;;;;;;1.42;100.00;101747.47;5054477;28;20730;-85
2020/12/25 04:52:06;;;;;;;9.10;2.53;;;;;;;1.42;100.00;101745.69;5051267;28;20060;-85
2020/12/25 04:54:32;;;;;;;8.15;2.40;;;;;;;1.43;100.00;101755.31;5042063;28;20033;-87
2020/12/25 04:56:59;;;;;;;8.65;2.40;;;;;;;1.35;100.00;101752.22;5027718;28;20400;-86
2020/12/25 04:59:31;;;;;;;7.57;2.38;;;;;;;1.39;100.00;101753.78;5019665;28;20384;-86
2020/12/25 05:02:00;;;;;;;9.18;2.30;;;;;;;1.37;100.00;101755.66;5042199;28;20041;-86
2020/12/25 05:04:26;;;;;;;11.80;2.47;;;;;;;1.35;100.00;101762.81;5037840;28;20040;-85
2020/12/25 05:06:53;;;;;;;7.97;2.65;;;;;;;1.32;100.00;101765.59;5046784;28;20514;-85
2020/12/25 05:09:23;;;;;;;10.25;2.60;;;;;;;1.34;100.00;101782.25;5044383;28;20029;-87
2020/12/25 05:11:55;;;;;;;9.35;2.85;;;;;;;1.28;100.00;101778.16;5059888;28;20072;-86
2020/12/25 05:14:29;;;;;;;12.43;2.83;;;;;;;1.31;100.00;101779.78;5006320;28;20038;-86
2020/12/25 05:16:57;;;;;;;9.35;2.33;;;;;;;1.30;100.00;101775.44;4990985;28;20095;-86
2020/12/25 05:19:27;;;;;;;8.02;2.50;;;;;;;1.28;100.00;101782.59;4994015;28;20034;-87
2020/12/25 05:21:56;;;;;;;6.22;2.75;;;;;;;1.28;100.00;101782.59;4995504;28;20045;-87
2020/12/25 05:24:21;;;;;;;5.80;2.35;;;;;;;1.29;100.00;101784.28;4971677;28;20109;-88
2020/12/25 05:26:57;;;;;;;10.57;2.22;;;;;;;1.33;100.00;101785.84;4975739;28;20218;-87
2020/12/25 05:29:28;;;;;;;7.93;2.13;;;;;;;1.37;100.00;101792.69;4963466;28;20045;-86
2020/12/25 05:31:54;;;;;;;6.60;2.10;;;;;;;1.38;100.00;101794.38;4934880;28;20047;-87
2020/12/25 05:34:22;;;;;;;8.95;2.05;;;;;;;1.36;100.00;101796.25;4992097;28;20412;-86
2020/12/25 05:36:53;;;;;;;7.63;2.33;;;;;;;1.37;100.00;101800.59;4964998;28;20047;-86
2020/12/25 05:39:28;;;;;;;6.72;2.53;;;;;;;1.36;100.00;101812.13;4949893;28;20071;-89
2020/12/25 05:41:56;;;;;;;5.97;2.58;;;;;;;1.34;100.00;101817.50;4935687;28;20131;-86
2020/12/25 05:44:24;;;;;;;7.10;2.30;;;;;;;1.43;100.00;101818.81;4923793;28;20046;-86
2020/12/25 05:46:49;;;;;;;6.27;1.90;;;;;;;1.45;100.00;101821.38;4906787;28;766257;-86
2020/12/25 05:49:15;;;;;;;8.63;1.73;;;;;;;1.42;100.00;101829.47;4931680;28;820986;-87
2020/12/25 05:51:50;;;;;;;6.03;2.53;;;;;;;1.46;100.00;101818.63;4856167;28;2553674;-87
2020/12/25 05:54:24;;;;;;;5.80;3.00;;;;;;;1.46;100.00;101823.06;4916499;28;20044;-88
2020/12/25 05:56:55;;;;;;;9.65;3.97;;;;;;;1.46;100.00;101812.50;4955520;29;20048;-87
2020/12/25 05:59:31;;;;;;;7.60;3.70;;;;;;;1.46;100.00;101813.34;4918295;29;20048;-88
2020/12/25 06:01:59;;;;;;;9.63;2.92;;;;;;;1.45;100.00;101822.22;4954155;28;20062;-86
2020/12/25 06:04:29;;;;;;;7.55;2.10;;;;;;;1.41;100.00;101825.97;4907061;29;20046;-89
2020/12/25 06:06:55;;;;;;;15.40;6.53;;;;;;;1.41;100.00;101833.03;4893688;29;20035;-87
2020/12/25 06:09:32;;;;;;;50.78;28.23;;;;;;;1.42;100.00;101834.75;4932519;28;639346;-87
2020/12/25 06:12:00;;;;;;;38.25;19.02;;;;;;;1.38;100.00;101844.63;4909305;29;20027;-86
2020/12/25 06:14:25;;;;;;;30.95;22.25;;;;;;;1.35;100.00;101842.16;4894233;29;614345;-87
2020/12/25 06:17:07;;;;;;;33.97;24.50;;;;;;;1.33;100.00;101844.03;4852891;29;649878;-85
2020/12/25 06:19:46;;;;;;;23.02;13.80;;;;;;;1.22;100.00;101843.72;4875074;29;811504;-86
2020/12/25 06:22:50;;;;;;;12.02;3.50;;;;;;;1.04;100.00;101838.44;4860753;29;471618;-85
2020/12/25 06:25:19;;;;;;;11.77;4.30;;;;;;;1.01;100.00;101846.53;4850902;29;641408;-85
2020/12/25 06:27:56;;;;;;;11.20;5.07;;;;;;;1.13;100.00;101842.41;4818826;29;661807;-85
2020/12/25 06:30:24;;;;;;;10.57;4.35;;;;;;;1.00;100.00;101842.16;4835728;29;946762;-86
2020/12/25 06:32:53;;;;;;;10.77;4.43;;;;;;;1.05;100.00;101844.56;4806834;29;886249;-85
2020/12/25 06:35:38;;;;;;;;;;;;;;;1.01;100.00;101849.16;4847050;29;615596;-85
2020/12/25 06:38:15;;;;;;;8.75;4.20;;;;;;;0.95;100.00;101854.75;4841122;29;237282;-85
2020/12/25 06:40:41;;;;;;;11.90;5.57;;;;;;;0.93;100.00;101858.41;4862662;29;20059;-86
2020/12/25 06:43:17;;;;;;;13.15;7.20;;;;;;;1.00;100.00;101852.72;4838442;29;20074;-86
2020/12/25 06:45:45;;;;;;;7.07;4.85;;;;;;;0.94;100.00;101853.03;4853318;29;20060;-85
2020/12/25 06:48:19;;;;;;;8.68;4.85;;;;;;;0.90;100.00;101851.50;4833551;29;20053;-86
2020/12/25 06:50:55;;;;;;;13.32;6.55;;;;;;;0.89;100.00;101855.03;4848630;29;20602;-85
2020/12/25 06:53:38;;;;;;;11.98;6.32;;;;;;;0.93;100.00;101863.69;4883444;29;20056;-85
2020/12/25 06:56:19;;;;;;;9.68;4.82;;;;;;;0.91;100.00;101869.03;4874517;29;20095;-85
2020/12/25 06:58:55;;;;;;;8.45;3.88;;;;;;;0.98;100.00;101873.13;4921760;29;20044;-86
2020/12/25 07:01:40;;;;;;;8.80;3.70;;;;;;;0.98;100.00;101875.75;4906247;28;20043;-86
2020/12/25 07:04:06;;;;;;;8.07;3.22;;;;;;;0.98;100.00;101873.13;4902826;29;20225;-85
2020/12/25 07:06:32;;;;;;;9.25;3.30;;;;;;;0.93;100.00;101880.41;4888847;29;20153;-85
2020/12/25 07:09:11;;;;;;;7.10;2.60;;;;;;;1.01;100.00;101886.19;4873573;29;20047;-85
2020/12/25 07:11:38;;;;;;;10.07;3.20;;;;;;;1.05;100.00;101886.88;4742351;29;4009815;-85
2020/12/25 07:14:04;;;;;;;8.75;2.80;;;;;;;0.97;100.00;101889.88;4597070;29;4007631;-86
2020/12/25 07:16:30;;;;;;;10.48;2.40;;;;;;;1.09;100.00;101896.34;4880545;29;20052;-85
2020/12/25 07:18:56;;;;;;;8.25;2.25;;;;;;;1.15;100.00;101890.75;4738460;29;4000543;-85
2020/12/25 07:21:21;;;;;;;8.68;2.05;;;;;;;1.19;100.00;101886.19;4864050;29;780058;-86
2020/12/25 07:23:47;;;;;;;9.32;3.83;;;;;;;1.09;100.00;101878.72;4737861;29;4009894;-85
2020/12/25 07:26:13;;;;;;;8.82;4.32;;;;;;;1.17;100.00;101891.53;4884861;29;20083;-86
2020/12/25 07:28:39;;;;;;;10.52;4.40;;;;;;;1.22;100.00;101893.97;4765852;29;4004418;-85
2020/12/25 07:31:05;;;;;;;12.38;2.72;;;;;;;1.25;100.00;101899.94;4631793;29;4003243;-84
2020/12/25 07:33:31;;;;;;;8.40;2.45;;;;;;;1.26;100.00;101893.72;4881664;29;748070;-85
2020/12/25 07:35:58;;;;;;;9.35;2.15;;;;;;;1.27;100.00;101899.88;4859524;29;812320;-84
2020/12/25 07:38:24;;;;;;;9.23;2.47;;;;;;;1.24;100.00;101897.41;4890758;29;20135;-84
2020/12/25 07:40:50;;;;;;;6.43;3.30;;;;;;;1.27;100.00;101900.75;4884904;29;20592;-85
2020/12/25 07:43:16;;;;;;;9.77;3.08;;;;;;;1.27;100.00;101899.88;4924604;28;20123;-86
2020/12/25 07:45:42;;;;;;;5.13;2.33;;;;;;;1.27;100.00;101910.47;4948991;28;20665;-86
2020/12/25 07:48:08;;;;;;;9.40;2.47;;;;;;;1.34;100.00;101917.13;4931533;28;20100;-85
2020/12/25 07:50:38;;;;;;;8.43;2.30;;;;;;;1.38;100.00;101904.63;4916153;29;20425;-85
2020/12/25 07:53:09;;;;;;;5.85;1.73;;;;;;;1.38;100.00;101918.69;4857876;29;20055;-85
2020/12/25 07:55:37;;;;;;;8.02;2.60;;;;;;;1.39;100.00;101912.47;4911750;29;20211;-86
2020/12/25 07:58:09;;;;;;;10.25;3.50;;;;;;;1.35;100.00;101916.19;4863929;29;20048;-84
2020/12/25 08:00:34;;;;;;;12.05;5.28;;;;;;;1.42;100.00;101911.47;4873858;29;20075;-86
2020/12/25 08:05:11;;;;;;;13.57;5.13;;;;;;;1.44;100.00;101921.03;5009138;27;20400;-87
2020/12/25 08:07:43;;;;;;;14.02;4.18;;;;;;;1.43;100.00;101913.19;4983258;28;20401;-86
2020/12/25 08:10:12;;;;;;;7.97;2.53;;;;;;;1.43;100.00;101921.13;4939623;28;20070;-87
2020/12/25 08:12:42;;;;;;;9.18;2.80;;;;;;;1.49;100.00;101924.28;4894975;29;20041;-87
2020/12/25 08:15:08;;;;;;;5.72;2.03;;;;;;;1.51;100.00;101933.00;4870088;29;20037;-86
2020/12/25 08:17:34;;;;;;;5.78;2.05;;;;;;;1.54;100.00;101932.84;4872004;29;20052;-87
2020/12/25 08:21:18;;;;;;;6.28;2.35;;;;;;;1.48;100.00;101933.19;5099663;27;20370;-87
2020/12/25 08:23:44;;;;;;;8.55;2.90;;;;;;;1.46;100.00;101929.75;5030572;28;20120;-86
2020/12/25 08:26:10;;;;;;;12.07;3.85;;;;;;;1.44;100.00;101926.34;4986210;28;20101;-87
2020/12/25 08:28:36;;;;;;;11.88;3.20;;;;;;;1.51;100.00;101927.72;4995873;28;20047;-87
2020/12/25 08:31:15;;;;;;;16.38;4.85;;;;;;;1.43;100.00;101919.31;4967059;28;20097;-87
2020/12/25 08:33:41;;;;;;;9.52;4.53;;;;;;;1.39;100.00;101933.66;4952299;28;20042;-88
2020/12/25 08:36:13;;;;;;;17.98;7.60;;;;;;;1.42;100.00;101936.13;4965222;28;20133;-88
2020/12/25 08:38:42;;;;;;;37.92;16.33;;;;;;;1.46;100.00;101934.19;4903652;29;20043;-86
2020/12/25 08:41:08;;;;;;;38.20;15.23;;;;;;;1.45;100.00;101943.06;4779386;28;1981771;-89
2020/12/25 08:43:34;;;;;;;21.55;7.75;;;;;;;1.42;100.00;101944.06;4889971;28;704453;-88
2020/12/25 08:46:00;;;;;;;17.00;7.07;;;;;;;1.47;100.00;101951.78;4852528;28;841825;-88
2020/12/25 08:48:27;;;;;;;20.23;6.78;;;;;;;1.45;100.00;101948.34;4891146;28;737950;-88
2020/12/25 08:51:12;;;;;;;16.15;8.48;;;;;;;1.48;100.00;101954.34;4908421;28;20055;-88
2020/12/25 08:53:39;;;;;;;16.63;5.05;;;;;;;1.48;100.00;101946.41;4920122;28;20043;-87
2020/12/25 08:56:28;;;;;;;10.48;4.13;;;;;;;1.50;100.00;101952.47;4756151;29;3261708;-88
2020/12/25 08:59:04;;;;;;;;;;;;;;;1.56;100.00;101956.59;4873092;29;20056;-88
2020/12/25 09:01:34;;;;;;;14.77;4.53;;;;;;;1.52;100.00;101962.97;4869214;29;19924;-89
2020/12/25 09:04:03;;;;;;;9.57;5.20;;;;;;;1.55;100.00;101958.41;4862458;29;20032;-88
2020/12/25 09:06:31;;;;;;;10.60;4.03;;;;;;;1.64;100.00;101965.00;4880807;29;20068;-88
2020/12/25 09:08:57;;;;;;;9.48;3.50;;;;;;;1.72;100.00;101969.91;4881893;29;20040;-88
2020/12/25 09:11:24;;;;;;;10.93;4.03;;;;;;;1.75;100.00;101977.69;4815072;29;1871517;-88
2020/12/25 09:13:51;;;;;;;11.77;4.15;;;;;;;1.77;100.00;101971.38;4808537;29;796083;-89
2020/12/25 09:16:17;;;;;;;11.32;3.95;;;;;;;1.82;100.00;101970.31;4830264;29;792716;-88
2020/12/25 09:18:43;;;;;;;11.52;3.10;;;;;;;1.87;100.00;101969.13;4719329;29;4003329;-89
2020/12/25 09:21:11;;;;;;;9.65;2.92;;;;;;;1.86;100.00;101969.19;4886433;29;214038;-88
2020/12/25 09:23:38;;;;;;;11.93;3.13;;;;;;;1.87;100.00;101966.47;4860893;29;20739;-88
2020/12/25 09:26:06;;;;;;;13.50;3.28;;;;;;;1.90;100.00;101971.63;4871743;28;819973;-88
2020/12/25 09:28:32;;;;;;;9.90;3.67;;;;;;;1.92;100.00;101967.06;4884631;28;737724;-89
2020/12/25 09:30:57;;;;;;;13.15;3.47;;;;;;;1.96;100.00;101973.94;4841790;28;864995;-89
2020/12/25 09:33:24;;;;;;;12.07;3.40;;;;;;;1.97;100.00;101973.00;4754892;29;4009793;-88
2020/12/25 09:35:50;;;;;;;10.38;3.42;;;;;;;2.03;100.00;101977.97;4886138;29;20040;-89
2020/12/25 09:38:16;;;;;;;13.45;4.32;;;;;;;2.08;100.00;101968.94;4876503;29;20052;-86
2020/12/25 09:40:42;;;;;;;12.25;4.57;;;;;;;2.09;100.00;101965.34;4924850;29;20044;-86
2020/12/25 09:43:07;;;;;;;10.57;3.38;;;;;;;2.09;100.00;101970.66;4894280;29;20053;-86
2020/12/25 09:47:20;;;;;;;10.07;2.78;;;;;;;2.05;100.00;101961.16;5046217;27;20366;-89
2020/12/25 09:49:46;;;;;;;9.25;3.28;;;;;;;2.09;100.00;101962.69;5007376;28;20064;-89
2020/12/25 09:52:11;;;;;;;8.13;2.50;;;;;;;2.15;100.00;101971.16;5012409;28;20402;-89
2020/12/25 09:54:36;;;;;;;9.10;2.97;;;;;;;2.22;100.00;101971.72;5021875;28;20112;-86
2020/12/25 09:57:02;;;;;;;10.88;3.90;;;;;;;2.24;100.00;101972.47;4994587;28;20112;-85
2020/12/25 09:59:28;;;;;;;10.60;4.25;;;;;;;2.29;100.00;101969.59;5009667;28;20034;-86
2020/12/25 10:01:53;;;;;;;10.82;4.47;;;;;;;2.33;100.00;101972.00;5024315;28;20075;-86
2020/12/25 10:04:19;;;;;;;10.02;4.40;;;;;;;2.42;100.00;101973.31;5026928;28;20544;-85
2020/12/25 10:06:44;;;;;;;10.98;4.55;;;;;;;2.49;100.00;101975.50;5005530;28;20565;-88
2020/12/25 10:09:09;;;;;;;13.80;4.20;;;;;;;2.55;100.00;101976.13;5025252;28;20049;-89
2020/12/25 10:11:35;;;;;;;11.50;4.07;;;;;;;2.59;100.00;101975.88;5024470;28;20505;-88
2020/12/25 10:14:00;;;;;;;7.88;3.25;;;;;;;2.66;100.00;101976.41;5026076;28;20493;-86
2020/12/25 10:16:25;;;;;;;10.27;3.97;;;;;;;2.69;100.00;101984.19;5001411;28;20104;-88
2020/12/25 10:18:51;;;;;;;20.05;7.93;;;;;;;2.76;100.00;101988.19;5011415;28;20333;-88
2020/12/25 10:21:18;;;;;;;13.95;6.65;;;;;;;2.79;100.00;101977.44;5020084;28;20045;-88
2020/12/25 10:23:44;;;;;;;19.38;8.40;;;;;;;2.86;100.00;101978.81;5035153;28;20075;-87
2020/12/25 10:26:12;;;;;;;12.52;5.72;;;;;;;2.93;100.00;101974.88;5027285;28;20043;-86
2020/12/25 10:28:38;;;;;;;13.60;5.10;;;;;;;2.99;100.00;101972.81;5025035;28;20560;-90
2020/12/25 10:31:05;;;;;;;8.40;3.17;;;;;;;3.04;100.00;101982.22;5024234;28;20037;-87
2020/12/25 10:33:30;;;;;;;7.55;2.50;;;;;;;3.11;100.00;101980.09;5020569;28;20045;-86
2020/12/25 10:35:56;;;;;;;7.70;2.78;;;;;;;3.15;100.00;101976.31;5022180;28;20401;-86
2020/12/25 10:38:21;;;;;;;6.10;2.13;;;;;;;3.20;100.00;101976.91;5022222;28;20973;-85
2020/12/25 10:40:50;;;;;;;10.40;3.00;;;;;;;3.24;100.00;101981.09;5020399;28;20058;-85
2020/12/25 10:43:15;;;;;;;6.43;2.88;;;;;;;3.27;100.00;101978.25;5009200;28;20096;-87
2020/12/25 10:45:40;;;;;;;7.10;2.25;;;;;;;3.31;100.00;101985.09;5021176;28;20045;-86
2020/12/25 10:48:09;;;;;;;10.45;2.10;;;;;;;3.33;100.00;101988.50;5024434;28;20057;-87
2020/12/25 10:50:35;;;;;;;10.45;2.00;;;;;;;3.41;100.00;101995.19;5021165;28;20041;-85
2020/12/25 10:53:01;;;;;;;8.13;2.22;;;;;;;3.46;100.00;101990.47;5005347;28;20056;-86
2020/12/25 10:55:26;;;;;;;8.90;1.67;;;;;;;3.50;100.00;101989.34;5019329;28;20492;-87
2020/12/25 10:57:51;;;;;;;8.30;2.20;;;;;;;3.53;100.00;101995.31;5013508;28;20610;-89
2020/12/25 11:00:17;;;;;;;5.80;1.45;;;;;;;3.54;100.00;101982.91;4997430;28;20116;-88
2020/12/25 11:02:42;;;;;;;8.82;1.95;;;;;;;3.59;100.00;101975.53;4989834;28;20050;-86
2020/12/25 11:05:13;;;;;;;10.32;1.90;;;;;;;3.61;100.00;101976.28;4973189;28;20491;-88
2020/12/25 11:07:38;;;;;;;5.65;1.17;;;;;;;3.65;100.00;101977.81;4986887;28;20734;-86
2020/12/25 11:10:04;;;;;;;6.22;1.65;;;;;;;3.67;100.00;101975.09;4989759;28;20124;-87
2020/12/25 11:12:29;;;;;;;9.73;2.03;;;;;;;3.78;100.00;101967.34;4991356;28;20060;-88
2020/12/25 11:14:54;;;;;;;10.48;2.05;;;;;;;3.81;100.00;101962.69;4990796;28;20070;-88
2020/12/25 11:17:21;;;;;;;7.03;1.50;;;;;;;3.82;99.81;101952.91;5035602;28;20061;-86
2020/12/25 11:19:46;;;;;;;3.90;1.30;;;;;;;3.90;100.00;101957.78;5024017;28;20497;-88
2020/12/25 11:22:13;;;;;;;6.53;1.85;;;;;;;3.96;99.83;101954.75;5007891;28;20056;-88
2020/12/25 11:24:43;;;;;;;6.90;2.10;;;;;;;4.01;99.14;101957.97;5006967;28;20407;-87
2020/12/25 11:27:09;;;;;;;9.15;2.00;;;;;;;4.03;98.51;101962.25;5002432;28;20063;-85